sensor_id;sensor_type;location;lat;lon;timestamp;P1;durP1;ratioP1;P2;durP2;ratioP2
41881;SDS011;27562;47.524;12.404;2023-05-19T00:00:15;4.78;;;2.30;;
41881;SDS011;27562;47.524;12.404;2023-05-19T00:02:42;5.45;;;2.50;;
41881;SDS011;27562;47.524;12.404;2023-05-19T00:05:09;5.82;;;2.33;;
41881;SDS011;27562;47.524;12.404;2023-05-19T00:07:37;4.13;;;2.42;;
41881;SDS011;27562;47.524;12.404;2023-05-19T00:10:03;4.45;;;2.40;;
41881;SDS011;27562;47.524;12.404;2023-05-19T00:12:30;4.32;;;2.65;;
41881;SDS011;27562;47.524;12.404;2023-05-19T00:14:56;3.95;;;2.50;;
41881;SDS011;27562;47.524;12.404;2023-05-19T00:17:22;5.75;;;2.58;;
41881;SDS011;27562;47.524;12.404;2023-05-19T00:19:48;3.70;;;2.28;;
41881;SDS011;27562;47.524;12.404;2023-05-19T00:22:14;5.93;;;2.88;;
41881;SDS011;27562;47.524;12.404;2023-05-19T00:24:40;4.30;;;2.25;;
41881;SDS011;27562;47.524;12.404;2023-05-19T00:27:05;4.18;;;2.55;;
41881;SDS011;27562;47.524;12.404;2023-05-19T00:29:31;5.72;;;2.08;;
41881;SDS011;27562;47.524;12.404;2023-05-19T00:31:57;5.03;;;2.40;;
41881;SDS011;27562;47.524;12.404;2023-05-19T00:34:22;4.40;;;2.40;;
41881;SDS011;27562;47.524;12.404;2023-05-19T00:36:48;7.18;;;2.97;;
41881;SDS011;27562;47.524;12.404;2023-05-19T00:39:14;3.85;;;2.55;;
41881;SDS011;27562;47.524;12.404;2023-05-19T00:41:40;3.42;;;2.10;;
41881;SDS011;27562;47.524;12.404;2023-05-19T00:44:06;3.75;;;2.40;;
41881;SDS011;27562;47.524;12.404;2023-05-19T00:46:32;4.20;;;2.50;;
41881;SDS011;27562;47.524;12.404;2023-05-19T00:48:58;3.78;;;2.50;;
41881;SDS011;27562;47.524;12.404;2023-05-19T00:51:25;5.38;;;2.63;;
41881;SDS011;27562;47.524;12.404;2023-05-19T00:53:51;4.47;;;2.55;;
41881;SDS011;27562;47.524;12.404;2023-05-19T00:56:18;4.93;;;2.47;;
41881;SDS011;27562;47.524;12.404;2023-05-19T00:58:45;5.65;;;2.60;;
41881;SDS011;27562;47.524;12.404;2023-05-19T01:01:12;6.07;;;2.70;;
41881;SDS011;27562;47.524;12.404;2023-05-19T01:03:41;4.22;;;2.63;;
41881;SDS011;27562;47.524;12.404;2023-05-19T01:06:08;3.45;;;2.22;;
41881;SDS011;27562;47.524;12.404;2023-05-19T01:08:34;5.90;;;2.33;;
41881;SDS011;27562;47.524;12.404;2023-05-19T01:11:01;5.43;;;2.67;;
41881;SDS011;27562;47.524;12.404;2023-05-19T01:13:28;3.05;;;2.17;;
41881;SDS011;27562;47.524;12.404;2023-05-19T01:19:00;4.15;;;2.42;;
41881;SDS011;27562;47.524;12.404;2023-05-19T01:32:50;6.03;;;2.38;;
41881;SDS011;27562;47.524;12.404;2023-05-19T01:35:19;5.97;;;2.60;;
41881;SDS011;27562;47.524;12.404;2023-05-19T01:37:48;4.75;;;2.45;;
41881;SDS011;27562;47.524;12.404;2023-05-19T01:40:18;4.90;;;2.72;;
41881;SDS011;27562;47.524;12.404;2023-05-19T01:42:46;4.78;;;2.55;;
41881;SDS011;27562;47.524;12.404;2023-05-19T01:45:14;4.03;;;2.25;;
41881;SDS011;27562;47.524;12.404;2023-05-19T01:47:41;5.47;;;2.67;;
41881;SDS011;27562;47.524;12.404;2023-05-19T01:50:10;4.85;;;2.28;;
41881;SDS011;27562;47.524;12.404;2023-05-19T01:52:36;4.80;;;2.30;;
41881;SDS011;27562;47.524;12.404;2023-05-19T01:55:01;5.00;;;2.35;;
41881;SDS011;27562;47.524;12.404;2023-05-19T02:00:40;4.30;;;2.50;;
41881;SDS011;27562;47.524;12.404;2023-05-19T02:06:13;3.50;;;2.17;;
41881;SDS011;27562;47.524;12.404;2023-05-19T02:11:45;6.97;;;2.70;;
41881;SDS011;27562;47.524;12.404;2023-05-19T02:14:12;5.57;;;2.25;;
41881;SDS011;27562;47.524;12.404;2023-05-19T02:16:44;5.03;;;2.45;;
41881;SDS011;27562;47.524;12.404;2023-05-19T02:19:29;4.10;;;2.45;;
41881;SDS011;27562;47.524;12.404;2023-05-19T02:22:03;5.88;;;2.65;;
41881;SDS011;27562;47.524;12.404;2023-05-19T02:24:30;8.15;;;4.43;;
41881;SDS011;27562;47.524;12.404;2023-05-19T02:26:56;8.32;;;4.43;;
41881;SDS011;27562;47.524;12.404;2023-05-19T02:29:21;9.55;;;4.53;;
41881;SDS011;27562;47.524;12.404;2023-05-19T02:31:47;6.30;;;3.45;;
41881;SDS011;27562;47.524;12.404;2023-05-19T02:34:13;6.55;;;3.00;;
41881;SDS011;27562;47.524;12.404;2023-05-19T02:36:39;5.20;;;3.10;;
41881;SDS011;27562;47.524;12.404;2023-05-19T02:39:09;6.13;;;3.63;;
41881;SDS011;27562;47.524;12.404;2023-05-19T02:41:35;8.40;;;4.75;;
41881;SDS011;27562;47.524;12.404;2023-05-19T02:44:01;12.60;;;6.03;;
41881;SDS011;27562;47.524;12.404;2023-05-19T02:46:27;27.73;;;13.27;;
41881;SDS011;27562;47.524;12.404;2023-05-19T02:48:53;27.05;;;14.57;;
41881;SDS011;27562;47.524;12.404;2023-05-19T02:51:18;22.58;;;12.18;;
41881;SDS011;27562;47.524;12.404;2023-05-19T02:53:44;18.83;;;10.20;;
41881;SDS011;27562;47.524;12.404;2023-05-19T02:56:10;14.15;;;7.18;;
41881;SDS011;27562;47.524;12.404;2023-05-19T02:58:35;9.07;;;5.07;;
41881;SDS011;27562;47.524;12.404;2023-05-19T03:01:01;7.47;;;4.63;;
41881;SDS011;27562;47.524;12.404;2023-05-19T03:03:27;5.45;;;3.38;;
41881;SDS011;27562;47.524;12.404;2023-05-19T03:05:52;5.85;;;3.03;;
41881;SDS011;27562;47.524;12.404;2023-05-19T03:08:18;4.70;;;2.65;;
41881;SDS011;27562;47.524;12.404;2023-05-19T03:10:45;4.18;;;2.58;;
41881;SDS011;27562;47.524;12.404;2023-05-19T03:13:11;4.30;;;2.50;;
41881;SDS011;27562;47.524;12.404;2023-05-19T03:15:37;4.05;;;2.47;;
41881;SDS011;27562;47.524;12.404;2023-05-19T03:18:02;4.82;;;2.60;;
41881;SDS011;27562;47.524;12.404;2023-05-19T03:20:29;5.22;;;3.20;;
41881;SDS011;27562;47.524;12.404;2023-05-19T03:22:55;5.57;;;3.10;;
41881;SDS011;27562;47.524;12.404;2023-05-19T03:25:21;6.47;;;3.72;;
41881;SDS011;27562;47.524;12.404;2023-05-19T03:27:47;7.32;;;3.88;;
41881;SDS011;27562;47.524;12.404;2023-05-19T03:30:13;4.95;;;3.03;;
41881;SDS011;27562;47.524;12.404;2023-05-19T03:32:39;4.75;;;3.38;;
41881;SDS011;27562;47.524;12.404;2023-05-19T03:35:05;4.53;;;2.70;;
41881;SDS011;27562;47.524;12.404;2023-05-19T03:37:31;4.07;;;2.70;;
41881;SDS011;27562;47.524;12.404;2023-05-19T03:39:57;7.55;;;3.20;;
41881;SDS011;27562;47.524;12.404;2023-05-19T03:42:23;6.50;;;3.05;;
41881;SDS011;27562;47.524;12.404;2023-05-19T03:44:49;5.25;;;3.20;;
41881;SDS011;27562;47.524;12.404;2023-05-19T03:47:15;5.35;;;3.47;;
41881;SDS011;27562;47.524;12.404;2023-05-19T03:49:41;7.35;;;4.70;;
41881;SDS011;27562;47.524;12.404;2023-05-19T03:52:07;6.13;;;3.88;;
41881;SDS011;27562;47.524;12.404;2023-05-19T03:54:33;4.70;;;2.92;;
41881;SDS011;27562;47.524;12.404;2023-05-19T03:57:00;5.28;;;3.00;;
41881;SDS011;27562;47.524;12.404;2023-05-19T03:59:26;5.53;;;3.00;;
41881;SDS011;27562;47.524;12.404;2023-05-19T04:01:52;7.68;;;4.47;;
41881;SDS011;27562;47.524;12.404;2023-05-19T04:04:17;5.68;;;4.10;;
41881;SDS011;27562;47.524;12.404;2023-05-19T04:06:43;7.75;;;4.10;;
41881;SDS011;27562;47.524;12.404;2023-05-19T04:09:12;6.72;;;3.88;;
41881;SDS011;27562;47.524;12.404;2023-05-19T04:11:39;5.07;;;3.33;;
41881;SDS011;27562;47.524;12.404;2023-05-19T04:14:06;4.85;;;3.20;;
41881;SDS011;27562;47.524;12.404;2023-05-19T04:16:32;4.50;;;3.17;;
41881;SDS011;27562;47.524;12.404;2023-05-19T04:18:58;5.03;;;2.83;;
41881;SDS011;27562;47.524;12.404;2023-05-19T04:21:24;5.10;;;2.90;;
41881;SDS011;27562;47.524;12.404;2023-05-19T04:23:49;5.72;;;2.92;;
41881;SDS011;27562;47.524;12.404;2023-05-19T04:26:15;3.72;;;2.55;;
41881;SDS011;27562;47.524;12.404;2023-05-19T04:28:43;5.43;;;3.10;;
41881;SDS011;27562;47.524;12.404;2023-05-19T04:31:09;3.67;;;2.40;;
41881;SDS011;27562;47.524;12.404;2023-05-19T04:33:36;5.50;;;2.88;;
41881;SDS011;27562;47.524;12.404;2023-05-19T04:36:03;5.40;;;2.70;;
41881;SDS011;27562;47.524;12.404;2023-05-19T04:38:29;5.05;;;2.92;;
41881;SDS011;27562;47.524;12.404;2023-05-19T04:40:55;7.25;;;3.03;;
41881;SDS011;27562;47.524;12.404;2023-05-19T04:43:21;5.68;;;3.10;;
41881;SDS011;27562;47.524;12.404;2023-05-19T04:45:47;5.38;;;3.38;;
41881;SDS011;27562;47.524;12.404;2023-05-19T04:48:15;4.05;;;3.53;;
41881;SDS011;27562;47.524;12.404;2023-05-19T04:50:40;3.88;;;2.78;;
41881;SDS011;27562;47.524;12.404;2023-05-19T04:53:07;5.30;;;3.10;;
41881;SDS011;27562;47.524;12.404;2023-05-19T04:55:33;5.65;;;3.25;;
41881;SDS011;27562;47.524;12.404;2023-05-19T04:57:59;5.63;;;3.53;;
41881;SDS011;27562;47.524;12.404;2023-05-19T05:00:25;5.65;;;3.58;;
41881;SDS011;27562;47.524;12.404;2023-05-19T05:02:51;6.45;;;3.30;;
41881;SDS011;27562;47.524;12.404;2023-05-19T05:05:16;4.88;;;3.30;;
41881;SDS011;27562;47.524;12.404;2023-05-19T05:07:42;7.50;;;4.45;;
41881;SDS011;27562;47.524;12.404;2023-05-19T05:10:08;6.75;;;4.13;;
41881;SDS011;27562;47.524;12.404;2023-05-19T05:12:34;5.35;;;3.47;;
41881;SDS011;27562;47.524;12.404;2023-05-19T05:15:00;6.05;;;3.78;;
41881;SDS011;27562;47.524;12.404;2023-05-19T05:17:26;5.57;;;3.88;;
41881;SDS011;27562;47.524;12.404;2023-05-19T05:19:52;4.97;;;2.97;;
41881;SDS011;27562;47.524;12.404;2023-05-19T05:22:18;5.85;;;3.70;;
41881;SDS011;27562;47.524;12.404;2023-05-19T05:24:45;6.20;;;3.72;;
41881;SDS011;27562;47.524;12.404;2023-05-19T05:27:10;5.30;;;3.45;;
41881;SDS011;27562;47.524;12.404;2023-05-19T05:29:37;5.82;;;3.17;;
41881;SDS011;27562;47.524;12.404;2023-05-19T05:32:03;5.60;;;3.55;;
41881;SDS011;27562;47.524;12.404;2023-05-19T05:34:28;5.57;;;3.70;;
41881;SDS011;27562;47.524;12.404;2023-05-19T05:36:54;5.93;;;3.28;;
41881;SDS011;27562;47.524;12.404;2023-05-19T05:39:20;8.95;;;4.93;;
41881;SDS011;27562;47.524;12.404;2023-05-19T05:41:45;6.28;;;3.95;;
41881;SDS011;27562;47.524;12.404;2023-05-19T05:44:11;9.40;;;4.03;;
41881;SDS011;27562;47.524;12.404;2023-05-19T05:46:37;5.47;;;3.80;;
41881;SDS011;27562;47.524;12.404;2023-05-19T05:49:03;9.95;;;3.58;;
41881;SDS011;27562;47.524;12.404;2023-05-19T05:51:29;5.13;;;3.38;;
41881;SDS011;27562;47.524;12.404;2023-05-19T05:53:56;5.10;;;3.65;;
41881;SDS011;27562;47.524;12.404;2023-05-19T05:56:24;6.18;;;3.50;;
41881;SDS011;27562;47.524;12.404;2023-05-19T05:58:50;7.75;;;3.55;;
41881;SDS011;27562;47.524;12.404;2023-05-19T06:01:16;6.43;;;3.90;;
41881;SDS011;27562;47.524;12.404;2023-05-19T06:03:42;10.10;;;6.78;;
41881;SDS011;27562;47.524;12.404;2023-05-19T06:06:11;9.90;;;6.32;;
41881;SDS011;27562;47.524;12.404;2023-05-19T06:08:37;8.55;;;5.53;;
41881;SDS011;27562;47.524;12.404;2023-05-19T06:11:03;7.40;;;4.93;;
41881;SDS011;27562;47.524;12.404;2023-05-19T06:13:35;6.55;;;3.92;;
41881;SDS011;27562;47.524;12.404;2023-05-19T06:16:01;5.38;;;3.83;;
41881;SDS011;27562;47.524;12.404;2023-05-19T06:18:27;5.00;;;3.53;;
41881;SDS011;27562;47.524;12.404;2023-05-19T06:20:53;6.25;;;3.83;;
41881;SDS011;27562;47.524;12.404;2023-05-19T06:23:18;7.72;;;3.97;;
41881;SDS011;27562;47.524;12.404;2023-05-19T06:25:44;6.43;;;3.53;;
41881;SDS011;27562;47.524;12.404;2023-05-19T06:28:10;5.45;;;3.60;;
41881;SDS011;27562;47.524;12.404;2023-05-19T06:30:36;5.30;;;3.70;;
41881;SDS011;27562;47.524;12.404;2023-05-19T06:33:01;7.63;;;3.30;;
41881;SDS011;27562;47.524;12.404;2023-05-19T06:35:27;6.88;;;3.60;;
41881;SDS011;27562;47.524;12.404;2023-05-19T06:37:54;4.22;;;3.13;;
41881;SDS011;27562;47.524;12.404;2023-05-19T06:40:20;6.50;;;3.50;;
41881;SDS011;27562;47.524;12.404;2023-05-19T06:42:49;5.68;;;3.40;;
41881;SDS011;27562;47.524;12.404;2023-05-19T06:45:15;6.88;;;3.20;;
41881;SDS011;27562;47.524;12.404;2023-05-19T06:47:41;5.57;;;3.00;;
41881;SDS011;27562;47.524;12.404;2023-05-19T06:50:09;6.97;;;4.22;;
41881;SDS011;27562;47.524;12.404;2023-05-19T06:52:35;5.38;;;3.40;;
41881;SDS011;27562;47.524;12.404;2023-05-19T06:55:01;7.13;;;3.60;;
41881;SDS011;27562;47.524;12.404;2023-05-19T06:57:27;7.28;;;3.88;;
41881;SDS011;27562;47.524;12.404;2023-05-19T06:59:52;5.72;;;3.38;;
41881;SDS011;27562;47.524;12.404;2023-05-19T07:02:18;7.35;;;3.63;;
41881;SDS011;27562;47.524;12.404;2023-05-19T07:04:43;7.32;;;3.92;;
41881;SDS011;27562;47.524;12.404;2023-05-19T07:07:09;4.88;;;3.95;;
41881;SDS011;27562;47.524;12.404;2023-05-19T07:09:35;6.30;;;3.60;;
41881;SDS011;27562;47.524;12.404;2023-05-19T07:12:01;6.35;;;4.25;;
41881;SDS011;27562;47.524;12.404;2023-05-19T07:14:26;5.00;;;3.55;;
41881;SDS011;27562;47.524;12.404;2023-05-19T07:16:52;5.65;;;3.65;;
41881;SDS011;27562;47.524;12.404;2023-05-19T07:19:18;5.65;;;3.75;;
41881;SDS011;27562;47.524;12.404;2023-05-19T07:21:46;6.07;;;3.60;;
41881;SDS011;27562;47.524;12.404;2023-05-19T07:24:12;5.90;;;3.88;;
41881;SDS011;27562;47.524;12.404;2023-05-19T07:26:38;6.35;;;3.90;;
41881;SDS011;27562;47.524;12.404;2023-05-19T07:29:04;10.25;;;4.85;;
41881;SDS011;27562;47.524;12.404;2023-05-19T07:31:30;9.75;;;5.35;;
41881;SDS011;27562;47.524;12.404;2023-05-19T07:33:56;10.30;;;5.00;;
41881;SDS011;27562;47.524;12.404;2023-05-19T07:36:22;6.43;;;4.00;;
41881;SDS011;27562;47.524;12.404;2023-05-19T07:38:47;7.78;;;4.40;;
41881;SDS011;27562;47.524;12.404;2023-05-19T07:41:13;7.13;;;4.22;;
41881;SDS011;27562;47.524;12.404;2023-05-19T07:43:39;6.65;;;4.72;;
41881;SDS011;27562;47.524;12.404;2023-05-19T07:46:05;9.23;;;5.72;;
41881;SDS011;27562;47.524;12.404;2023-05-19T07:48:30;5.50;;;3.88;;
41881;SDS011;27562;47.524;12.404;2023-05-19T07:50:56;6.00;;;3.40;;
41881;SDS011;27562;47.524;12.404;2023-05-19T07:53:22;5.05;;;3.00;;
41881;SDS011;27562;47.524;12.404;2023-05-19T07:55:47;5.43;;;2.97;;
41881;SDS011;27562;47.524;12.404;2023-05-19T07:58:14;4.80;;;2.50;;
41881;SDS011;27562;47.524;12.404;2023-05-19T08:00:40;3.97;;;2.40;;
41881;SDS011;27562;47.524;12.404;2023-05-19T08:03:09;6.68;;;2.40;;
41881;SDS011;27562;47.524;12.404;2023-05-19T08:05:36;3.47;;;2.28;;
41881;SDS011;27562;47.524;12.404;2023-05-19T08:08:02;4.45;;;2.80;;
41881;SDS011;27562;47.524;12.404;2023-05-19T08:10:28;4.00;;;2.33;;
41881;SDS011;27562;47.524;12.404;2023-05-19T08:12:54;9.40;;;3.88;;
41881;SDS011;27562;47.524;12.404;2023-05-19T08:15:19;12.93;;;4.30;;
41881;SDS011;27562;47.524;12.404;2023-05-19T08:17:45;8.25;;;2.60;;
41881;SDS011;27562;47.524;12.404;2023-05-19T08:20:11;5.28;;;2.30;;
41881;SDS011;27562;47.524;12.404;2023-05-19T08:22:37;2.70;;;1.70;;
41881;SDS011;27562;47.524;12.404;2023-05-19T08:25:03;4.40;;;1.98;;
41881;SDS011;27562;47.524;12.404;2023-05-19T08:27:30;5.20;;;2.30;;
41881;SDS011;27562;47.524;12.404;2023-05-19T08:29:56;4.18;;;2.33;;
41881;SDS011;27562;47.524;12.404;2023-05-19T08:32:22;4.22;;;2.10;;
41881;SDS011;27562;47.524;12.404;2023-05-19T08:34:48;4.30;;;2.00;;
41881;SDS011;27562;47.524;12.404;2023-05-19T08:37:14;3.25;;;2.10;;
41881;SDS011;27562;47.524;12.404;2023-05-19T08:39:40;3.33;;;2.40;;
41881;SDS011;27562;47.524;12.404;2023-05-19T08:42:06;4.28;;;2.38;;
41881;SDS011;27562;47.524;12.404;2023-05-19T08:44:33;4.82;;;2.30;;
41881;SDS011;27562;47.524;12.404;2023-05-19T08:47:02;3.72;;;2.17;;
41881;SDS011;27562;47.524;12.404;2023-05-19T08:49:36;4.28;;;2.28;;
41881;SDS011;27562;47.524;12.404;2023-05-19T08:54:48;5.25;;;2.28;;
41881;SDS011;27562;47.524;12.404;2023-05-19T08:57:20;4.00;;;2.95;;
41881;SDS011;27562;47.524;12.404;2023-05-19T08:59:49;6.65;;;5.38;;
41881;SDS011;27562;47.524;12.404;2023-05-19T09:02:16;6.95;;;4.90;;
41881;SDS011;27562;47.524;12.404;2023-05-19T09:04:43;8.27;;;4.95;;
41881;SDS011;27562;47.524;12.404;2023-05-19T09:07:14;6.25;;;3.75;;
41881;SDS011;27562;47.524;12.404;2023-05-19T09:09:41;8.68;;;4.47;;
41881;SDS011;27562;47.524;12.404;2023-05-19T09:12:11;6.00;;;4.32;;
41881;SDS011;27562;47.524;12.404;2023-05-19T09:14:38;4.68;;;3.40;;
41881;SDS011;27562;47.524;12.404;2023-05-19T09:17:04;5.70;;;3.78;;
41881;SDS011;27562;47.524;12.404;2023-05-19T09:19:30;3.83;;;2.65;;
41881;SDS011;27562;47.524;12.404;2023-05-19T09:21:59;4.07;;;2.83;;
41881;SDS011;27562;47.524;12.404;2023-05-19T09:26:53;6.00;;;3.30;;
41881;SDS011;27562;47.524;12.404;2023-05-19T09:29:23;4.53;;;3.00;;
41881;SDS011;27562;47.524;12.404;2023-05-19T09:31:50;6.60;;;3.78;;
41881;SDS011;27562;47.524;12.404;2023-05-19T09:34:18;8.73;;;3.60;;
41881;SDS011;27562;47.524;12.404;2023-05-19T09:36:45;5.95;;;3.30;;
41881;SDS011;27562;47.524;12.404;2023-05-19T09:39:16;7.10;;;2.93;;
41881;SDS011;27562;47.524;12.404;2023-05-19T09:41:43;4.28;;;2.92;;
41881;SDS011;27562;47.524;12.404;2023-05-19T09:44:21;7.40;;;3.30;;
41881;SDS011;27562;47.524;12.404;2023-05-19T09:46:48;5.63;;;3.38;;
41881;SDS011;27562;47.524;12.404;2023-05-19T09:49:22;4.90;;;2.97;;
41881;SDS011;27562;47.524;12.404;2023-05-19T09:51:55;4.68;;;2.28;;
41881;SDS011;27562;47.524;12.404;2023-05-19T09:54:23;4.55;;;2.75;;
41881;SDS011;27562;47.524;12.404;2023-05-19T09:56:59;5.35;;;2.55;;
41881;SDS011;27562;47.524;12.404;2023-05-19T09:59:28;5.63;;;3.03;;
41881;SDS011;27562;47.524;12.404;2023-05-19T10:01:55;3.78;;;2.80;;
41881;SDS011;27562;47.524;12.404;2023-05-19T10:04:22;4.07;;;2.47;;
41881;SDS011;27562;47.524;12.404;2023-05-19T10:06:52;5.63;;;3.00;;
41881;SDS011;27562;47.524;12.404;2023-05-19T10:09:23;7.55;;;2.97;;
41881;SDS011;27562;47.524;12.404;2023-05-19T10:11:53;5.18;;;2.55;;
41881;SDS011;27562;47.524;12.404;2023-05-19T10:14:21;6.60;;;2.40;;
41881;SDS011;27562;47.524;12.404;2023-05-19T10:16:50;4.22;;;2.30;;
41881;SDS011;27562;47.524;12.404;2023-05-19T10:19:19;3.33;;;2.33;;
41881;SDS011;27562;47.524;12.404;2023-05-19T10:21:46;3.85;;;1.92;;
41881;SDS011;27562;47.524;12.404;2023-05-19T10:24:13;3.88;;;1.88;;
41881;SDS011;27562;47.524;12.404;2023-05-19T10:26:39;4.53;;;2.00;;
41881;SDS011;27562;47.524;12.404;2023-05-19T10:29:08;3.25;;;1.67;;
41881;SDS011;27562;47.524;12.404;2023-05-19T10:31:35;4.18;;;2.10;;
41881;SDS011;27562;47.524;12.404;2023-05-19T10:36:49;3.13;;;1.80;;
41881;SDS011;27562;47.524;12.404;2023-05-19T10:39:22;2.78;;;1.85;;
41881;SDS011;27562;47.524;12.404;2023-05-19T10:42:01;3.28;;;1.70;;
41881;SDS011;27562;47.524;12.404;2023-05-19T10:47:06;3.33;;;1.50;;
41881;SDS011;27562;47.524;12.404;2023-05-19T10:49:36;2.67;;;1.60;;
41881;SDS011;27562;47.524;12.404;2023-05-19T10:52:03;2.53;;;1.50;;
41881;SDS011;27562;47.524;12.404;2023-05-19T10:54:47;2.40;;;1.40;;
41881;SDS011;27562;47.524;12.404;2023-05-19T10:57:13;2.88;;;1.45;;
41881;SDS011;27562;47.524;12.404;2023-05-19T10:59:40;3.45;;;1.52;;
41881;SDS011;27562;47.524;12.404;2023-05-19T11:02:06;4.32;;;1.60;;
41881;SDS011;27562;47.524;12.404;2023-05-19T11:04:44;3.00;;;2.00;;
41881;SDS011;27562;47.524;12.404;2023-05-19T11:07:16;3.40;;;1.60;;
41881;SDS011;27562;47.524;12.404;2023-05-19T11:09:43;2.30;;;1.48;;
41881;SDS011;27562;47.524;12.404;2023-05-19T11:12:19;3.17;;;1.50;;
41881;SDS011;27562;47.524;12.404;2023-05-19T11:14:52;3.10;;;1.77;;
41881;SDS011;27562;47.524;12.404;2023-05-19T11:17:23;3.70;;;1.55;;
41881;SDS011;27562;47.524;12.404;2023-05-19T11:19:56;2.40;;;1.48;;
41881;SDS011;27562;47.524;12.404;2023-05-19T11:22:24;2.45;;;1.50;;
41881;SDS011;27562;47.524;12.404;2023-05-19T11:24:50;5.43;;;1.80;;
41881;SDS011;27562;47.524;12.404;2023-05-19T11:27:31;3.80;;;1.55;;
41881;SDS011;27562;47.524;12.404;2023-05-19T11:30:08;2.35;;;1.50;;
41881;SDS011;27562;47.524;12.404;2023-05-19T11:32:39;4.15;;;1.58;;
41881;SDS011;27562;47.524;12.404;2023-05-19T11:35:08;2.17;;;1.50;;
41881;SDS011;27562;47.524;12.404;2023-05-19T11:37:34;4.18;;;1.63;;
41881;SDS011;27562;47.524;12.404;2023-05-19T11:40:01;3.33;;;1.52;;
41881;SDS011;27562;47.524;12.404;2023-05-19T11:42:33;2.40;;;1.70;;
41881;SDS011;27562;47.524;12.404;2023-05-19T11:45:00;2.75;;;1.50;;
41881;SDS011;27562;47.524;12.404;2023-05-19T11:47:26;3.30;;;1.67;;
41881;SDS011;27562;47.524;12.404;2023-05-19T11:49:53;6.00;;;2.10;;
41881;SDS011;27562;47.524;12.404;2023-05-19T11:52:23;5.47;;;1.80;;
41881;SDS011;27562;47.524;12.404;2023-05-19T11:54:51;3.08;;;1.70;;
41881;SDS011;27562;47.524;12.404;2023-05-19T11:57:17;2.58;;;1.80;;
41881;SDS011;27562;47.524;12.404;2023-05-19T11:59:43;3.30;;;1.95;;
41881;SDS011;27562;47.524;12.404;2023-05-19T12:04:40;5.20;;;1.98;;
41881;SDS011;27562;47.524;12.404;2023-05-19T12:07:06;4.70;;;1.77;;
41881;SDS011;27562;47.524;12.404;2023-05-19T12:09:32;4.18;;;2.00;;
41881;SDS011;27562;47.524;12.404;2023-05-19T12:11:57;3.30;;;1.52;;
41881;SDS011;27562;47.524;12.404;2023-05-19T12:14:25;6.38;;;2.10;;
41881;SDS011;27562;47.524;12.404;2023-05-19T12:16:50;3.63;;;1.58;;
41881;SDS011;27562;47.524;12.404;2023-05-19T12:19:16;4.50;;;1.73;;
41881;SDS011;27562;47.524;12.404;2023-05-19T12:21:42;4.35;;;2.13;;
41881;SDS011;27562;47.524;12.404;2023-05-19T12:24:08;4.43;;;2.00;;
41881;SDS011;27562;47.524;12.404;2023-05-19T12:26:34;2.78;;;1.75;;
41881;SDS011;27562;47.524;12.404;2023-05-19T12:29:03;2.50;;;1.73;;
41881;SDS011;27562;47.524;12.404;2023-05-19T12:31:30;4.80;;;1.90;;
41881;SDS011;27562;47.524;12.404;2023-05-19T12:33:56;6.55;;;2.35;;
41881;SDS011;27562;47.524;12.404;2023-05-19T12:36:22;2.72;;;1.73;;
41881;SDS011;27562;47.524;12.404;2023-05-19T12:38:52;2.63;;;1.67;;
41881;SDS011;27562;47.524;12.404;2023-05-19T12:41:22;4.03;;;1.60;;
41881;SDS011;27562;47.524;12.404;2023-05-19T12:43:51;3.72;;;1.70;;
41881;SDS011;27562;47.524;12.404;2023-05-19T12:46:18;2.45;;;1.63;;
41881;SDS011;27562;47.524;12.404;2023-05-19T12:48:44;4.72;;;1.85;;
41881;SDS011;27562;47.524;12.404;2023-05-19T12:51:17;4.47;;;2.03;;
41881;SDS011;27562;47.524;12.404;2023-05-19T12:53:43;4.45;;;1.80;;
41881;SDS011;27562;47.524;12.404;2023-05-19T12:56:10;3.03;;;1.77;;
41881;SDS011;27562;47.524;12.404;2023-05-19T12:58:38;2.97;;;1.70;;
41881;SDS011;27562;47.524;12.404;2023-05-19T13:01:05;4.45;;;1.88;;
41881;SDS011;27562;47.524;12.404;2023-05-19T13:03:32;4.00;;;2.10;;
41881;SDS011;27562;47.524;12.404;2023-05-19T13:06:05;4.35;;;2.30;;
41881;SDS011;27562;47.524;12.404;2023-05-19T13:08:30;3.33;;;2.20;;
41881;SDS011;27562;47.524;12.404;2023-05-19T13:10:56;10.40;;;2.40;;
41881;SDS011;27562;47.524;12.404;2023-05-19T13:13:22;5.28;;;1.88;;
41881;SDS011;27562;47.524;12.404;2023-05-19T13:15:47;5.00;;;2.22;;
41881;SDS011;27562;47.524;12.404;2023-05-19T13:18:13;3.08;;;1.90;;
41881;SDS011;27562;47.524;12.404;2023-05-19T13:20:39;2.75;;;1.77;;
41881;SDS011;27562;47.524;12.404;2023-05-19T13:23:08;3.13;;;2.05;;
41881;SDS011;27562;47.524;12.404;2023-05-19T13:25:34;4.18;;;2.20;;
41881;SDS011;27562;47.524;12.404;2023-05-19T13:28:00;3.15;;;2.00;;
41881;SDS011;27562;47.524;12.404;2023-05-19T13:30:30;5.00;;;2.40;;
41881;SDS011;27562;47.524;12.404;2023-05-19T13:32:56;2.78;;;1.90;;
41881;SDS011;27562;47.524;12.404;2023-05-19T13:35:22;4.22;;;2.20;;
41881;SDS011;27562;47.524;12.404;2023-05-19T13:37:48;3.75;;;2.00;;
41881;SDS011;27562;47.524;12.404;2023-05-19T13:40:13;4.20;;;2.30;;
41881;SDS011;27562;47.524;12.404;2023-05-19T13:42:40;5.50;;;2.00;;
41881;SDS011;27562;47.524;12.404;2023-05-19T13:45:07;4.68;;;2.33;;
41881;SDS011;27562;47.524;12.404;2023-05-19T13:47:33;3.78;;;2.15;;
41881;SDS011;27562;47.524;12.404;2023-05-19T13:50:00;4.32;;;2.30;;
41881;SDS011;27562;47.524;12.404;2023-05-19T13:52:27;6.18;;;2.35;;
41881;SDS011;27562;47.524;12.404;2023-05-19T13:54:53;9.80;;;4.18;;
41881;SDS011;27562;47.524;12.404;2023-05-19T13:57:20;4.60;;;2.00;;
41881;SDS011;27562;47.524;12.404;2023-05-19T13:59:47;3.10;;;2.17;;
41881;SDS011;27562;47.524;12.404;2023-05-19T14:02:13;3.80;;;2.30;;
41881;SDS011;27562;47.524;12.404;2023-05-19T14:04:39;2.85;;;1.92;;
41881;SDS011;27562;47.524;12.404;2023-05-19T14:07:05;6.10;;;2.15;;
41881;SDS011;27562;47.524;12.404;2023-05-19T14:09:31;4.18;;;2.53;;
41881;SDS011;27562;47.524;12.404;2023-05-19T14:11:57;3.88;;;2.50;;
41881;SDS011;27562;47.524;12.404;2023-05-19T14:14:23;7.68;;;2.42;;
41881;SDS011;27562;47.524;12.404;2023-05-19T14:16:49;3.25;;;2.28;;
41881;SDS011;27562;47.524;12.404;2023-05-19T14:19:14;4.00;;;2.50;;
41881;SDS011;27562;47.524;12.404;2023-05-19T14:21:40;5.82;;;3.03;;
41881;SDS011;27562;47.524;12.404;2023-05-19T14:24:06;2.88;;;2.00;;
41881;SDS011;27562;47.524;12.404;2023-05-19T14:26:32;4.90;;;2.42;;
41881;SDS011;27562;47.524;12.404;2023-05-19T14:28:57;7.90;;;2.88;;
41881;SDS011;27562;47.524;12.404;2023-05-19T14:31:23;5.20;;;2.70;;
41881;SDS011;27562;47.524;12.404;2023-05-19T14:33:49;3.88;;;2.10;;
41881;SDS011;27562;47.524;12.404;2023-05-19T14:36:15;3.97;;;2.15;;
41881;SDS011;27562;47.524;12.404;2023-05-19T14:38:41;5.50;;;2.22;;
41881;SDS011;27562;47.524;12.404;2023-05-19T14:41:07;3.75;;;2.08;;
41881;SDS011;27562;47.524;12.404;2023-05-19T14:43:32;7.63;;;2.92;;
41881;SDS011;27562;47.524;12.404;2023-05-19T14:45:58;4.55;;;2.40;;
41881;SDS011;27562;47.524;12.404;2023-05-19T14:48:24;4.30;;;2.40;;
41881;SDS011;27562;47.524;12.404;2023-05-19T14:50:49;5.13;;;2.53;;
41881;SDS011;27562;47.524;12.404;2023-05-19T14:53:16;4.35;;;2.30;;
41881;SDS011;27562;47.524;12.404;2023-05-19T14:55:42;3.78;;;2.35;;
41881;SDS011;27562;47.524;12.404;2023-05-19T14:58:08;5.60;;;2.65;;
41881;SDS011;27562;47.524;12.404;2023-05-19T15:00:34;4.57;;;2.47;;
41881;SDS011;27562;47.524;12.404;2023-05-19T15:02:59;6.20;;;2.60;;
41881;SDS011;27562;47.524;12.404;2023-05-19T15:05:25;6.97;;;2.97;;
41881;SDS011;27562;47.524;12.404;2023-05-19T15:07:51;5.20;;;2.80;;